Login to view Products
 
Thursday, July 18, 2024 (15:10 UTC)
Al Ain International Airport
ICAO: OMAL
IATA: AAN
  • METAR OMAL 181500Z 30006KT 9000 NSC 42/16 Q0996 NOSIG=
  • TAF OMAL 181100Z 1812/1918 18006KT 8000 NSC BECMG 1812/1814 30012KT BECMG 1818/1820 VRB02KT BECMG 1910/1912 32011KT=
15-- D:\Input Parser\Destinations\Final\11\OMAL_TAF.txt-- 18/07/2024-- 18/07/2024-- 3
Last Updated:
Wind Dir/Speed:
Temperature:
Rel. Humidity:
Pressure:
Visibility: